Aviation Digital Data Service (ADDS)

Output produced by METARs form (0426 UTC 26 April 2019)
found at http://www.aviationweather.gov/metar/data/
 
METAR text: LFSB 260400Z 09003KT 050V150 7000 RA FEW036 OVC043 08/06 Q1014 NOSIG
Conditions at: LFSB (BALE/MULHOUSE , FR) observed 0400 UTC 26 April 2019
Temperature: 8.0°C (46°F)
Dewpoint: 6.0°C (43°F) [RH = 87%]
Pressure (altimeter): 29.94 inches Hg (1014.0 mb)
Winds: from the E (90 degrees) at 3 MPH (3 knots; 1.5 m/s)
Visibility: 4 miles ( 7 km)
Ceiling: 4300 feet AGL
Clouds: few clouds at 3600 feet AGL
overcast cloud deck at 4300 feet AGL
Weather: RA  (moderate rain)

METAR text: LFSB 260330Z 18004KT 150V210 8000 RA FEW036 OVC048 08/06 Q1014 NOSIG
Conditions at: LFSB (BALE/MULHOUSE , FR) observed 0330 UTC 26 April 2019
Temperature: 8.0°C (46°F)
Dewpoint: 6.0°C (43°F) [RH = 87%]
Pressure (altimeter): 29.94 inches Hg (1014.0 mb)
Winds: from the S (180 degrees) at 5 MPH (4 knots; 2.1 m/s)
Visibility: 5 miles ( 8 km)
Ceiling: 4800 feet AGL
Clouds: few clouds at 3600 feet AGL
overcast cloud deck at 4800 feet AGL
Weather: RA  (moderate rain)

METAR text: LFSB 260300Z VRB02KT 9999 -RA FEW038 BKN083 OVC096 08/06 Q1013 NOSIG
Conditions at: LFSB (BALE/MULHOUSE , FR) observed 0300 UTC 26 April 2019
Temperature: 8.0°C (46°F)
Dewpoint: 6.0°C (43°F) [RH = 87%]
Pressure (altimeter): 29.91 inches Hg (1013.0 mb)
Winds: variable direction winds at 2 MPH (2 knots; 1.0 m/s)
Visibility: 6 or more miles (10+ km)
Ceiling: 8300 feet AGL
Clouds: few clouds at 3800 feet AGL
broken clouds at 8300 feet AGL
overcast cloud deck at 9600 feet AGL
Weather: -RA  (light rain)

METAR text: LFSB 260230Z 21005KT 180V240 9999 -RA FEW035 OVC083 08/05 Q1013 NOSIG
Conditions at: LFSB (BALE/MULHOUSE , FR) observed 0230 UTC 26 April 2019
Temperature: 8.0°C (46°F)
Dewpoint: 5.0°C (41°F) [RH = 81%]
Pressure (altimeter): 29.91 inches Hg (1013.0 mb)
Winds: from the SSW (210 degrees) at 6 MPH (5 knots; 2.6 m/s)
Visibility: 6 or more miles (10+ km)
Ceiling: 8300 feet AGL
Clouds: few clouds at 3500 feet AGL
overcast cloud deck at 8300 feet AGL
Weather: -RA  (light rain)

METAR text: LFSB 260200Z AUTO VRB03KT 9999 ///CB 08/04 Q1013 TEMPO 4000 RA BECMG NSC
Conditions at: LFSB (BALE/MULHOUSE , FR) observed 0200 UTC 26 April 2019
Temperature: 8.0°C (46°F)
Dewpoint: 4.0°C (39°F) [RH = 76%]
Pressure (altimeter): 29.91 inches Hg (1013.0 mb)
Winds: variable direction winds at 3 MPH (3 knots; 1.5 m/s)
Visibility: 6 or more miles (10+ km)
Ceiling: unknown
Clouds: missing
Weather: no significant weather observed at this time

METAR text: LFSB 260130Z AUTO 20004KT 140V270 9999 FEW054/// OVC080/// ///TCU 08/04 Q1013 TEMPO 4000 RA BECMG NSC
Conditions at: LFSB (BALE/MULHOUSE , FR) observed 0130 UTC 26 April 2019
Temperature: 8.0°C (46°F)
Dewpoint: 4.0°C (39°F) [RH = 76%]
Pressure (altimeter): 29.91 inches Hg (1013.0 mb)
Winds: from the SSW (200 degrees) at 5 MPH (4 knots; 2.1 m/s)
Visibility: 6 or more miles (10+ km)
Ceiling: 8000 feet AGL
Clouds: few clouds at 5400 feet AGL
overcast cloud deck at 8000 feet AGL
Weather: no significant weather observed at this time

METAR text: LFSB 260100Z AUTO 21006KT 170V250 9999 FEW022 OVC054 08/04 Q1013 TEMPO 4000 RA BKN040 SCT050TCU
Conditions at: LFSB (BALE/MULHOUSE , FR) observed 0100 UTC 26 April 2019
Temperature: 8.0°C (46°F)
Dewpoint: 4.0°C (39°F) [RH = 76%]
Pressure (altimeter): 29.91 inches Hg (1013.0 mb)
Winds: from the SSW (210 degrees) at 7 MPH (6 knots; 3.1 m/s)
Visibility: 6 or more miles (10+ km)
Ceiling: 5400 feet AGL
Clouds: few clouds at 2200 feet AGL
overcast cloud deck at 5400 feet AGL
Weather: no significant weather observed at this time

METAR text: LFSB 260030Z AUTO 23008KT 200V280 9999 SCT021 OVC054 09/05 Q1013 TEMPO 4000 RA BKN040 SCT050TCU
Conditions at: LFSB (BALE/MULHOUSE , FR) observed 0030 UTC 26 April 2019
Temperature: 9.0°C (48°F)
Dewpoint: 5.0°C (41°F) [RH = 76%]
Pressure (altimeter): 29.91 inches Hg (1013.0 mb)
Winds: from the SW (230 degrees) at 9 MPH (8 knots; 4.1 m/s)
Visibility: 6 or more miles (10+ km)
Ceiling: 5400 feet AGL
Clouds: scattered clouds at 2100 feet AGL
overcast cloud deck at 5400 feet AGL
Weather: no significant weather observed at this time

METAR text: LFSB 260000Z AUTO 26010KT 220V290 9999 FEW023 OVC050 09/05 Q1013 TEMPO 4000 RA BKN040 SCT050TCU BECMG 16005KT
Conditions at: LFSB (BALE/MULHOUSE , FR) observed 0000 UTC 26 April 2019
Temperature: 9.0°C (48°F)
Dewpoint: 5.0°C (41°F) [RH = 76%]
Pressure (altimeter): 29.91 inches Hg (1013.0 mb)
Winds: from the W (260 degrees) at 12 MPH (10 knots; 5.1 m/s)
Visibility: 6 or more miles (10+ km)
Ceiling: 5000 feet AGL
Clouds: few clouds at 2300 feet AGL
overcast cloud deck at 5000 feet AGL
Weather: no significant weather observed at this time

METAR text: LFSB 252330Z AUTO 26012KT 9999 BKN049 BKN058 OVC072 09/05 Q1012 TEMPO 4000 RA BKN040 SCT050TCU BECMG 16005KT
Conditions at: LFSB (BALE/MULHOUSE , FR) observed 2330 UTC 25 April 2019
Temperature: 9.0°C (48°F)
Dewpoint: 5.0°C (41°F) [RH = 76%]
Pressure (altimeter): 29.88 inches Hg (1012.0 mb)
Winds: from the W (260 degrees) at 14 MPH (12 knots; 6.2 m/s)
Visibility: 6 or more miles (10+ km)
Ceiling: 4900 feet AGL
Clouds: broken clouds at 4900 feet AGL
broken clouds at 5800 feet AGL
overcast cloud deck at 7200 feet AGL
Weather: no significant weather observed at this time

METAR text: LFSB 252300Z AUTO 25012KT 9999 BKN049 OVC058 09/05 Q1012 TEMPO 4000 RA BKN040 SCT050TCU BECMG 16005KT
Conditions at: LFSB (BALE/MULHOUSE , FR) observed 2300 UTC 25 April 2019
Temperature: 9.0°C (48°F)
Dewpoint: 5.0°C (41°F) [RH = 76%]
Pressure (altimeter): 29.88 inches Hg (1012.0 mb)
Winds: from the WSW (250 degrees) at 14 MPH (12 knots; 6.2 m/s)
Visibility: 6 or more miles (10+ km)
Ceiling: 4900 feet AGL
Clouds: broken clouds at 4900 feet AGL
overcast cloud deck at 5800 feet AGL
Weather: no significant weather observed at this time

METAR text: LFSB 252230Z AUTO 25009KT 9999 BKN046 OVC068 09/05 Q1012 TEMPO 4000 RA BKN040 SCT050TCU
Conditions at: LFSB (BALE/MULHOUSE , FR) observed 2230 UTC 25 April 2019
Temperature: 9.0°C (48°F)
Dewpoint: 5.0°C (41°F) [RH = 76%]
Pressure (altimeter): 29.88 inches Hg (1012.0 mb)
Winds: from the WSW (250 degrees) at 10 MPH (9 knots; 4.6 m/s)
Visibility: 6 or more miles (10+ km)
Ceiling: 4600 feet AGL
Clouds: broken clouds at 4600 feet AGL
overcast cloud deck at 6800 feet AGL
Weather: no significant weather observed at this time

METAR text: LFSB 252200Z 26010KT 9999 BKN043 BKN073 09/05 Q1011 NOSIG
Conditions at: LFSB (BALE/MULHOUSE , FR) observed 2200 UTC 25 April 2019
Temperature: 9.0°C (48°F)
Dewpoint: 5.0°C (41°F) [RH = 76%]
Pressure (altimeter): 29.85 inches Hg (1011.0 mb)
Winds: from the W (260 degrees) at 12 MPH (10 knots; 5.1 m/s)
Visibility: 6 or more miles (10+ km)
Ceiling: 4300 feet AGL
Clouds: broken clouds at 4300 feet AGL
broken clouds at 7300 feet AGL
Weather: no significant weather observed at this time

METAR text: LFSB 252130Z 23010KT 9999 OVC042 10/05 Q1011 NOSIG
Conditions at: LFSB (BALE/MULHOUSE , FR) observed 2130 UTC 25 April 2019
Temperature: 10.0°C (50°F)
Dewpoint: 5.0°C (41°F) [RH = 71%]
Pressure (altimeter): 29.85 inches Hg (1011.0 mb)
Winds: from the SW (230 degrees) at 12 MPH (10 knots; 5.1 m/s)
Visibility: 6 or more miles (10+ km)
Ceiling: 4200 feet AGL
Clouds: overcast cloud deck at 4200 feet AGL
Weather: no significant weather observed at this time

METAR text: LFSB 252100Z 24008KT 9999 OVC043 10/05 Q1011 NOSIG
Conditions at: LFSB (BALE/MULHOUSE , FR) observed 2100 UTC 25 April 2019
Temperature: 10.0°C (50°F)
Dewpoint: 5.0°C (41°F) [RH = 71%]
Pressure (altimeter): 29.85 inches Hg (1011.0 mb)
Winds: from the WSW (240 degrees) at 9 MPH (8 knots; 4.1 m/s)
Visibility: 6 or more miles (10+ km)
Ceiling: 4300 feet AGL
Clouds: overcast cloud deck at 4300 feet AGL
Weather: no significant weather observed at this time

METAR text: LFSB 252030Z 24007KT 210V290 9999 OVC043 10/05 Q1012 NOSIG
Conditions at: LFSB (BALE/MULHOUSE , FR) observed 2030 UTC 25 April 2019
Temperature: 10.0°C (50°F)
Dewpoint: 5.0°C (41°F) [RH = 71%]
Pressure (altimeter): 29.88 inches Hg (1012.0 mb)
Winds: from the WSW (240 degrees) at 8 MPH (7 knots; 3.6 m/s)
Visibility: 6 or more miles (10+ km)
Ceiling: 4300 feet AGL
Clouds: overcast cloud deck at 4300 feet AGL
Weather: no significant weather observed at this time

METAR text: LFSB 252000Z 26014KT 230V290 9999 OVC043 10/05 Q1012 NOSIG
Conditions at: LFSB (BALE/MULHOUSE , FR) observed 2000 UTC 25 April 2019
Temperature: 10.0°C (50°F)
Dewpoint: 5.0°C (41°F) [RH = 71%]
Pressure (altimeter): 29.88 inches Hg (1012.0 mb)
Winds: from the W (260 degrees) at 16 MPH (14 knots; 7.2 m/s)
Visibility: 6 or more miles (10+ km)
Ceiling: 4300 feet AGL
Clouds: overcast cloud deck at 4300 feet AGL
Weather: no significant weather observed at this time

METAR text: LFSB 251930Z 25012KT 210V270 9999 BKN040 BKN050 10/05 Q1011 NOSIG
Conditions at: LFSB (BALE/MULHOUSE , FR) observed 1930 UTC 25 April 2019
Temperature: 10.0°C (50°F)
Dewpoint: 5.0°C (41°F) [RH = 71%]
Pressure (altimeter): 29.85 inches Hg (1011.0 mb)
Winds: from the WSW (250 degrees) at 14 MPH (12 knots; 6.2 m/s)
Visibility: 6 or more miles (10+ km)
Ceiling: 4000 feet AGL
Clouds: broken clouds at 4000 feet AGL
broken clouds at 5000 feet AGL
Weather: no significant weather observed at this time

METAR text: LFSB 251900Z 25010KT 9999 BKN043 BKN053 10/05 Q1011 NOSIG
Conditions at: LFSB (BALE/MULHOUSE , FR) observed 1900 UTC 25 April 2019
Temperature: 10.0°C (50°F)
Dewpoint: 5.0°C (41°F) [RH = 71%]
Pressure (altimeter): 29.85 inches Hg (1011.0 mb)
Winds: from the WSW (250 degrees) at 12 MPH (10 knots; 5.1 m/s)
Visibility: 6 or more miles (10+ km)
Ceiling: 4300 feet AGL
Clouds: broken clouds at 4300 feet AGL
broken clouds at 5300 feet AGL
Weather: no significant weather observed at this time

METAR text: LFSB 251830Z 25012KT 220V280 9999 SCT028 BKN053 11/06 Q1010 NOSIG
Conditions at: LFSB (BALE/MULHOUSE , FR) observed 1830 UTC 25 April 2019
Temperature: 11.0°C (52°F)
Dewpoint: 6.0°C (43°F) [RH = 71%]
Pressure (altimeter): 29.82 inches Hg (1010.0 mb)
Winds: from the WSW (250 degrees) at 14 MPH (12 knots; 6.2 m/s)
Visibility: 6 or more miles (10+ km)
Ceiling: 5300 feet AGL
Clouds: scattered clouds at 2800 feet AGL
broken clouds at 5300 feet AGL
Weather: no significant weather observed at this time

METAR text: LFSB 251800Z 26013KT 230V290 9999 BKN024 BKN053 12/06 Q1010 NOSIG
Conditions at: LFSB (BALE/MULHOUSE , FR) observed 1800 UTC 25 April 2019
Temperature: 12.0°C (54°F)
Dewpoint: 6.0°C (43°F) [RH = 67%]
Pressure (altimeter): 29.82 inches Hg (1010.0 mb)
Winds: from the W (260 degrees) at 15 MPH (13 knots; 6.7 m/s)
Visibility: 6 or more miles (10+ km)
Ceiling: 2400 feet AGL
Clouds: broken clouds at 2400 feet AGL
broken clouds at 5300 feet AGL
Weather: no significant weather observed at this time

METAR text: LFSB 251730Z 26017G27KT 230V290 9999 FEW026 BKN051 13/08 Q1009 NOSIG
Conditions at: LFSB (BALE/MULHOUSE , FR) observed 1730 UTC 25 April 2019
Temperature: 13.0°C (55°F)
Dewpoint: 8.0°C (46°F) [RH = 72%]
Pressure (altimeter): 29.79 inches Hg (1009.0 mb)
Winds: from the W (260 degrees) at 20 MPH (17 knots; 8.7 m/s)
gusting to 31 MPH (27 knots; 13.9 m/s)
Visibility: 6 or more miles (10+ km)
Ceiling: 5100 feet AGL
Clouds: few clouds at 2600 feet AGL
broken clouds at 5100 feet AGL
Weather: no significant weather observed at this time

METAR text: LFSB 251700Z 27015KT 9999 FEW043 BKN130 15/09 Q1008 NOSIG
Conditions at: LFSB (BALE/MULHOUSE , FR) observed 1700 UTC 25 April 2019
Temperature: 15.0°C (59°F)
Dewpoint: 9.0°C (48°F) [RH = 67%]
Pressure (altimeter): 29.76 inches Hg (1008.0 mb)
Winds: from the W (270 degrees) at 17 MPH (15 knots; 7.7 m/s)
Visibility: 6 or more miles (10+ km)
Ceiling: 13000 feet AGL
Clouds: few clouds at 4300 feet AGL
broken clouds at 13000 feet AGL
Weather: no significant weather observed at this time

METAR text: LFSB 251630Z 27014KT CAVOK 16/09 Q1008 NOSIG
Conditions at: LFSB (BALE/MULHOUSE , FR) observed 1630 UTC 25 April 2019
Temperature: 16.0°C (61°F)
Dewpoint: 9.0°C (48°F) [RH = 63%]
Pressure (altimeter): 29.76 inches Hg (1008.0 mb)
Winds: from the W (270 degrees) at 16 MPH (14 knots; 7.2 m/s)
Visibility: 6 or more miles (10+ km)
Ceiling: ceiling and visibility are OK
Clouds: unknown
Weather: no significant weather observed at this time

METAR text: LFSB 251608Z 27015KT CAVOK 17/08 Q1007 NOSIG
Conditions at: LFSB (BALE/MULHOUSE , FR) observed 1608 UTC 25 April 2019
Temperature: 17.0°C (63°F)
Dewpoint: 8.0°C (46°F) [RH = 55%]
Pressure (altimeter): 29.73 inches Hg (1007.0 mb)
Winds: from the W (270 degrees) at 17 MPH (15 knots; 7.7 m/s)
Visibility: 6 or more miles (10+ km)
Ceiling: ceiling and visibility are OK
Clouds: unknown
Weather: no significant weather observed at this time

METAR text: LFSB 251530Z 27013KT 240V300 CAVOK 18/08 Q1007 NOSIG
Conditions at: LFSB (BALE/MULHOUSE , FR) observed 1530 UTC 25 April 2019
Temperature: 18.0°C (64°F)
Dewpoint: 8.0°C (46°F) [RH = 52%]
Pressure (altimeter): 29.73 inches Hg (1007.0 mb)
Winds: from the W (270 degrees) at 15 MPH (13 knots; 6.7 m/s)
Visibility: 6 or more miles (10+ km)
Ceiling: ceiling and visibility are OK
Clouds: unknown
Weather: no significant weather observed at this time

METAR text: LFSB 251500Z 27017KT 240V300 CAVOK 19/09 Q1006 NOSIG
Conditions at: LFSB (BALE/MULHOUSE , FR) observed 1500 UTC 25 April 2019
Temperature: 19.0°C (66°F)
Dewpoint: 9.0°C (48°F) [RH = 52%]
Pressure (altimeter): 29.70 inches Hg (1006.0 mb)
Winds: from the W (270 degrees) at 20 MPH (17 knots; 8.7 m/s)
Visibility: 6 or more miles (10+ km)
Ceiling: ceiling and visibility are OK
Clouds: unknown
Weather: no significant weather observed at this time

METAR text: LFSB 251430Z 31008KT 9999 FEW043 BKN120 BKN200 21/12 Q1005 NOSIG
Conditions at: LFSB (BALE/MULHOUSE , FR) observed 1430 UTC 25 April 2019
Temperature: 21.0°C (70°F)
Dewpoint: 12.0°C (54°F) [RH = 56%]
Pressure (altimeter): 29.68 inches Hg (1005.0 mb)
Winds: from the NW (310 degrees) at 9 MPH (8 knots; 4.1 m/s)
Visibility: 6 or more miles (10+ km)
Ceiling: 12000 feet AGL
Clouds: few clouds at 4300 feet AGL
broken clouds at 12000 feet AGL
broken clouds at 20000 feet AGL
Weather: no significant weather observed at this time

METAR text: LFSB 251400Z 32006KT 290V030 9999 FEW043 BKN120 BKN200 22/13 Q1005 NOSIG
Conditions at: LFSB (BALE/MULHOUSE , FR) observed 1400 UTC 25 April 2019
Temperature: 22.0°C (72°F)
Dewpoint: 13.0°C (55°F) [RH = 57%]
Pressure (altimeter): 29.68 inches Hg (1005.0 mb)
Winds: from the NW (320 degrees) at 7 MPH (6 knots; 3.1 m/s)
Visibility: 6 or more miles (10+ km)
Ceiling: 12000 feet AGL
Clouds: few clouds at 4300 feet AGL
broken clouds at 12000 feet AGL
broken clouds at 20000 feet AGL
Weather: no significant weather observed at this time

METAR text: LFSB 251330Z 36004KT 320V050 CAVOK 23/11 Q1005 NOSIG
Conditions at: LFSB (BALE/MULHOUSE , FR) observed 1330 UTC 25 April 2019
Temperature: 23.0°C (73°F)
Dewpoint: 11.0°C (52°F) [RH = 47%]
Pressure (altimeter): 29.68 inches Hg (1005.0 mb)
Winds: from the N (360 degrees) at 5 MPH (4 knots; 2.1 m/s)
Visibility: 6 or more miles (10+ km)
Ceiling: ceiling and visibility are OK
Clouds: unknown
Weather: no significant weather observed at this time

METAR text: LFSB 251300Z 07005KT 010V120 CAVOK 24/10 Q1005 NOSIG
Conditions at: LFSB (BALE/MULHOUSE , FR) observed 1300 UTC 25 April 2019
Temperature: 24.0°C (75°F)
Dewpoint: 10.0°C (50°F) [RH = 41%]
Pressure (altimeter): 29.68 inches Hg (1005.0 mb)
Winds: from the ENE (70 degrees) at 6 MPH (5 knots; 2.6 m/s)
Visibility: 6 or more miles (10+ km)
Ceiling: ceiling and visibility are OK
Clouds: unknown
Weather: no significant weather observed at this time

METAR text: LFSB 251230Z 09005KT 020V150 CAVOK 23/07 Q1006 NOSIG
Conditions at: LFSB (BALE/MULHOUSE , FR) observed 1230 UTC 25 April 2019
Temperature: 23.0°C (73°F)
Dewpoint: 7.0°C (45°F) [RH = 36%]
Pressure (altimeter): 29.70 inches Hg (1006.0 mb)
Winds: from the E (90 degrees) at 6 MPH (5 knots; 2.6 m/s)
Visibility: 6 or more miles (10+ km)
Ceiling: ceiling and visibility are OK
Clouds: unknown
Weather: no significant weather observed at this time

METAR text: LFSB 251200Z 12006KT 070V150 CAVOK 22/08 Q1006 NOSIG
Conditions at: LFSB (BALE/MULHOUSE , FR) observed 1200 UTC 25 April 2019
Temperature: 22.0°C (72°F)
Dewpoint: 8.0°C (46°F) [RH = 41%]
Pressure (altimeter): 29.70 inches Hg (1006.0 mb)
Winds: from the ESE (120 degrees) at 7 MPH (6 knots; 3.1 m/s)
Visibility: 6 or more miles (10+ km)
Ceiling: ceiling and visibility are OK
Clouds: unknown
Weather: no significant weather observed at this time

METAR text: LFSB 251130Z 10007KT 020V150 CAVOK 21/07 Q1006 NOSIG
Conditions at: LFSB (BALE/MULHOUSE , FR) observed 1130 UTC 25 April 2019
Temperature: 21.0°C (70°F)
Dewpoint: 7.0°C (45°F) [RH = 40%]
Pressure (altimeter): 29.70 inches Hg (1006.0 mb)
Winds: from the E (100 degrees) at 8 MPH (7 knots; 3.6 m/s)
Visibility: 6 or more miles (10+ km)
Ceiling: ceiling and visibility are OK
Clouds: unknown
Weather: no significant weather observed at this time

METAR text: LFSB 251100Z 10007KT 050V140 CAVOK 20/08 Q1007 NOSIG
Conditions at: LFSB (BALE/MULHOUSE , FR) observed 1100 UTC 25 April 2019
Temperature: 20.0°C (68°F)
Dewpoint: 8.0°C (46°F) [RH = 46%]
Pressure (altimeter): 29.73 inches Hg (1007.0 mb)
Winds: from the E (100 degrees) at 8 MPH (7 knots; 3.6 m/s)
Visibility: 6 or more miles (10+ km)
Ceiling: ceiling and visibility are OK
Clouds: unknown
Weather: no significant weather observed at this time

METAR text: LFSB 251030Z 07005KT 010V140 CAVOK 19/11 Q1007 NOSIG
Conditions at: LFSB (BALE/MULHOUSE , FR) observed 1030 UTC 25 April 2019
Temperature: 19.0°C (66°F)
Dewpoint: 11.0°C (52°F) [RH = 60%]
Pressure (altimeter): 29.73 inches Hg (1007.0 mb)
Winds: from the ENE (70 degrees) at 6 MPH (5 knots; 2.6 m/s)
Visibility: 6 or more miles (10+ km)
Ceiling: ceiling and visibility are OK
Clouds: unknown
Weather: no significant weather observed at this time

METAR text: LFSB 251000Z 01005KT CAVOK 17/10 Q1007 NOSIG
Conditions at: LFSB (BALE/MULHOUSE , FR) observed 1000 UTC 25 April 2019
Temperature: 17.0°C (63°F)
Dewpoint: 10.0°C (50°F) [RH = 63%]
Pressure (altimeter): 29.73 inches Hg (1007.0 mb)
Winds: from the N (10 degrees) at 6 MPH (5 knots; 2.6 m/s)
Visibility: 6 or more miles (10+ km)
Ceiling: ceiling and visibility are OK
Clouds: unknown
Weather: no significant weather observed at this time

METAR text: LFSB 250930Z 35007KT CAVOK 16/09 Q1008 NOSIG
Conditions at: LFSB (BALE/MULHOUSE , FR) observed 0930 UTC 25 April 2019
Temperature: 16.0°C (61°F)
Dewpoint: 9.0°C (48°F) [RH = 63%]
Pressure (altimeter): 29.76 inches Hg (1008.0 mb)
Winds: from the N (350 degrees) at 8 MPH (7 knots; 3.6 m/s)
Visibility: 6 or more miles (10+ km)
Ceiling: ceiling and visibility are OK
Clouds: unknown
Weather: no significant weather observed at this time

METAR text: LFSB 250900Z 05007KT 010V090 CAVOK 16/07 Q1007 NOSIG
Conditions at: LFSB (BALE/MULHOUSE , FR) observed 0900 UTC 25 April 2019
Temperature: 16.0°C (61°F)
Dewpoint: 7.0°C (45°F) [RH = 55%]
Pressure (altimeter): 29.73 inches Hg (1007.0 mb)
Winds: from the NE (50 degrees) at 8 MPH (7 knots; 3.6 m/s)
Visibility: 6 or more miles (10+ km)
Ceiling: ceiling and visibility are OK
Clouds: unknown
Weather: no significant weather observed at this time

METAR text: LFSB 250830Z 05005KT 360V090 CAVOK 15/07 Q1008 NOSIG
Conditions at: LFSB (BALE/MULHOUSE , FR) observed 0830 UTC 25 April 2019
Temperature: 15.0°C (59°F)
Dewpoint: 7.0°C (45°F) [RH = 59%]
Pressure (altimeter): 29.76 inches Hg (1008.0 mb)
Winds: from the NE (50 degrees) at 6 MPH (5 knots; 2.6 m/s)
Visibility: 6 or more miles (10+ km)
Ceiling: ceiling and visibility are OK
Clouds: unknown
Weather: no significant weather observed at this time

METAR text: LFSB 250800Z 06004KT 010V130 CAVOK 14/08 Q1008 NOSIG
Conditions at: LFSB (BALE/MULHOUSE , FR) observed 0800 UTC 25 April 2019
Temperature: 14.0°C (57°F)
Dewpoint: 8.0°C (46°F) [RH = 67%]
Pressure (altimeter): 29.76 inches Hg (1008.0 mb)
Winds: from the ENE (60 degrees) at 5 MPH (4 knots; 2.1 m/s)
Visibility: 6 or more miles (10+ km)
Ceiling: ceiling and visibility are OK
Clouds: unknown
Weather: no significant weather observed at this time

METAR text: LFSB 250730Z VRB03KT CAVOK 13/07 Q1008 NOSIG
Conditions at: LFSB (BALE/MULHOUSE , FR) observed 0730 UTC 25 April 2019
Temperature: 13.0°C (55°F)
Dewpoint: 7.0°C (45°F) [RH = 67%]
Pressure (altimeter): 29.76 inches Hg (1008.0 mb)
Winds: variable direction winds at 3 MPH (3 knots; 1.5 m/s)
Visibility: 6 or more miles (10+ km)
Ceiling: ceiling and visibility are OK
Clouds: unknown
Weather: no significant weather observed at this time

METAR text: LFSB 250700Z 11006KT 080V140 CAVOK 12/07 Q1009 NOSIG
Conditions at: LFSB (BALE/MULHOUSE , FR) observed 0700 UTC 25 April 2019
Temperature: 12.0°C (54°F)
Dewpoint: 7.0°C (45°F) [RH = 71%]
Pressure (altimeter): 29.79 inches Hg (1009.0 mb)
Winds: from the ESE (110 degrees) at 7 MPH (6 knots; 3.1 m/s)
Visibility: 6 or more miles (10+ km)
Ceiling: ceiling and visibility are OK
Clouds: unknown
Weather: no significant weather observed at this time

METAR text: LFSB 250630Z 10005KT CAVOK 10/06 Q1009 NOSIG
Conditions at: LFSB (BALE/MULHOUSE , FR) observed 0630 UTC 25 April 2019
Temperature: 10.0°C (50°F)
Dewpoint: 6.0°C (43°F) [RH = 76%]
Pressure (altimeter): 29.79 inches Hg (1009.0 mb)
Winds: from the E (100 degrees) at 6 MPH (5 knots; 2.6 m/s)
Visibility: 6 or more miles (10+ km)
Ceiling: ceiling and visibility are OK
Clouds: unknown
Weather: no significant weather observed at this time

METAR text: LFSB 250600Z 12006KT CAVOK 09/06 Q1009 NOSIG
Conditions at: LFSB (BALE/MULHOUSE , FR) observed 0600 UTC 25 April 2019
Temperature: 9.0°C (48°F)
Dewpoint: 6.0°C (43°F) [RH = 81%]
Pressure (altimeter): 29.79 inches Hg (1009.0 mb)
Winds: from the ESE (120 degrees) at 7 MPH (6 knots; 3.1 m/s)
Visibility: 6 or more miles (10+ km)
Ceiling: ceiling and visibility are OK
Clouds: unknown
Weather: no significant weather observed at this time

METAR text: LFSB 250530Z 16003KT CAVOK 08/06 Q1009 NOSIG
Conditions at: LFSB (BALE/MULHOUSE , FR) observed 0530 UTC 25 April 2019
Temperature: 8.0°C (46°F)
Dewpoint: 6.0°C (43°F) [RH = 87%]
Pressure (altimeter): 29.79 inches Hg (1009.0 mb)
Winds: from the SSE (160 degrees) at 3 MPH (3 knots; 1.5 m/s)
Visibility: 6 or more miles (10+ km)
Ceiling: ceiling and visibility are OK
Clouds: unknown
Weather: no significant weather observed at this time

METAR text: LFSB 250500Z 16003KT CAVOK 07/05 Q1009 NOSIG
Conditions at: LFSB (BALE/MULHOUSE , FR) observed 0500 UTC 25 April 2019
Temperature: 7.0°C (45°F)
Dewpoint: 5.0°C (41°F) [RH = 87%]
Pressure (altimeter): 29.79 inches Hg (1009.0 mb)
Winds: from the SSE (160 degrees) at 3 MPH (3 knots; 1.5 m/s)
Visibility: 6 or more miles (10+ km)
Ceiling: ceiling and visibility are OK
Clouds: unknown
Weather: no significant weather observed at this time

METAR text: LFSB 250430Z VRB03KT CAVOK 07/05 Q1009 NOSIG
Conditions at: LFSB (BALE/MULHOUSE , FR) observed 0430 UTC 25 April 2019
Temperature: 7.0°C (45°F)
Dewpoint: 5.0°C (41°F) [RH = 87%]
Pressure (altimeter): 29.79 inches Hg (1009.0 mb)
Winds: variable direction winds at 3 MPH (3 knots; 1.5 m/s)
Visibility: 6 or more miles (10+ km)
Ceiling: ceiling and visibility are OK
Clouds: unknown
Weather: no significant weather observed at this time

METAR text: LFSB 250400Z 03003KT 350V060 CAVOK 07/06 Q1009 NOSIG
Conditions at: LFSB (BALE/MULHOUSE , FR) observed 0400 UTC 25 April 2019
Temperature: 7.0°C (45°F)
Dewpoint: 6.0°C (43°F) [RH = 93%]
Pressure (altimeter): 29.79 inches Hg (1009.0 mb)
Winds: from the NNE (30 degrees) at 3 MPH (3 knots; 1.5 m/s)
Visibility: 6 or more miles (10+ km)
Ceiling: ceiling and visibility are OK
Clouds: unknown
Weather: no significant weather observed at this time

METAR text: LFSB 250300Z 12005KT CAVOK 08/06 Q1009 NOSIG
Conditions at: LFSB (BALE/MULHOUSE , FR) observed 0300 UTC 25 April 2019
Temperature: 8.0°C (46°F)
Dewpoint: 6.0°C (43°F) [RH = 87%]
Pressure (altimeter): 29.79 inches Hg (1009.0 mb)
Winds: from the ESE (120 degrees) at 6 MPH (5 knots; 2.6 m/s)
Visibility: 6 or more miles (10+ km)
Ceiling: ceiling and visibility are OK
Clouds: unknown
Weather: no significant weather observed at this time

METAR text: LFSB 250230Z 17004KT CAVOK 08/06 Q1009 NOSIG
Conditions at: LFSB (BALE/MULHOUSE , FR) observed 0230 UTC 25 April 2019
Temperature: 8.0°C (46°F)
Dewpoint: 6.0°C (43°F) [RH = 87%]
Pressure (altimeter): 29.79 inches Hg (1009.0 mb)
Winds: from the S (170 degrees) at 5 MPH (4 knots; 2.1 m/s)
Visibility: 6 or more miles (10+ km)
Ceiling: ceiling and visibility are OK
Clouds: unknown
Weather: no significant weather observed at this time

METAR text: LFSB 250200Z AUTO 12005KT CAVOK 08/06 Q1009 NOSIG
Conditions at: LFSB (BALE/MULHOUSE , FR) observed 0200 UTC 25 April 2019
Temperature: 8.0°C (46°F)
Dewpoint: 6.0°C (43°F) [RH = 87%]
Pressure (altimeter): 29.79 inches Hg (1009.0 mb)
Winds: from the ESE (120 degrees) at 6 MPH (5 knots; 2.6 m/s)
Visibility: 6 or more miles (10+ km)
Ceiling: ceiling and visibility are OK
Clouds: unknown
Weather: no significant weather observed at this time

METAR text: LFSB 250130Z AUTO VRB03KT CAVOK 08/06 Q1009 NOSIG
Conditions at: LFSB (BALE/MULHOUSE , FR) observed 0130 UTC 25 April 2019
Temperature: 8.0°C (46°F)
Dewpoint: 6.0°C (43°F) [RH = 87%]
Pressure (altimeter): 29.79 inches Hg (1009.0 mb)
Winds: variable direction winds at 3 MPH (3 knots; 1.5 m/s)
Visibility: 6 or more miles (10+ km)
Ceiling: ceiling and visibility are OK
Clouds: unknown
Weather: no significant weather observed at this time

METAR text: LFSB 250100Z AUTO 14005KT CAVOK 08/06 Q1008 NOSIG
Conditions at: LFSB (BALE/MULHOUSE , FR) observed 0100 UTC 25 April 2019
Temperature: 8.0°C (46°F)
Dewpoint: 6.0°C (43°F) [RH = 87%]
Pressure (altimeter): 29.76 inches Hg (1008.0 mb)
Winds: from the SE (140 degrees) at 6 MPH (5 knots; 2.6 m/s)
Visibility: 6 or more miles (10+ km)
Ceiling: ceiling and visibility are OK
Clouds: unknown
Weather: no significant weather observed at this time

METAR text: LFSB 250030Z AUTO 17003KT CAVOK 08/06 Q1009 NOSIG
Conditions at: LFSB (BALE/MULHOUSE , FR) observed 0030 UTC 25 April 2019
Temperature: 8.0°C (46°F)
Dewpoint: 6.0°C (43°F) [RH = 87%]
Pressure (altimeter): 29.79 inches Hg (1009.0 mb)
Winds: from the S (170 degrees) at 3 MPH (3 knots; 1.5 m/s)
Visibility: 6 or more miles (10+ km)
Ceiling: ceiling and visibility are OK
Clouds: unknown
Weather: no significant weather observed at this time

METAR text: LFSB 250000Z AUTO 16005KT CAVOK 08/07 Q1008 NOSIG
Conditions at: LFSB (BALE/MULHOUSE , FR) observed 0000 UTC 25 April 2019
Temperature: 8.0°C (46°F)
Dewpoint: 7.0°C (45°F) [RH = 93%]
Pressure (altimeter): 29.76 inches Hg (1008.0 mb)
Winds: from the SSE (160 degrees) at 6 MPH (5 knots; 2.6 m/s)
Visibility: 6 or more miles (10+ km)
Ceiling: ceiling and visibility are OK
Clouds: unknown
Weather: no significant weather observed at this time

METAR text: LFSB 242330Z AUTO 14005KT CAVOK 08/07 Q1008 NOSIG
Conditions at: LFSB (BALE/MULHOUSE , FR) observed 2330 UTC 24 April 2019
Temperature: 8.0°C (46°F)
Dewpoint: 7.0°C (45°F) [RH = 93%]
Pressure (altimeter): 29.76 inches Hg (1008.0 mb)
Winds: from the SE (140 degrees) at 6 MPH (5 knots; 2.6 m/s)
Visibility: 6 or more miles (10+ km)
Ceiling: ceiling and visibility are OK
Clouds: unknown
Weather: no significant weather observed at this time

METAR text: LFSB 242300Z AUTO 14007KT CAVOK 09/07 Q1009 NOSIG
Conditions at: LFSB (BALE/MULHOUSE , FR) observed 2300 UTC 24 April 2019
Temperature: 9.0°C (48°F)
Dewpoint: 7.0°C (45°F) [RH = 87%]
Pressure (altimeter): 29.79 inches Hg (1009.0 mb)
Winds: from the SE (140 degrees) at 8 MPH (7 knots; 3.6 m/s)
Visibility: 6 or more miles (10+ km)
Ceiling: ceiling and visibility are OK
Clouds: unknown
Weather: no significant weather observed at this time

METAR text: LFSB 242230Z AUTO 15005KT CAVOK 08/07 Q1008 NOSIG
Conditions at: LFSB (BALE/MULHOUSE , FR) observed 2230 UTC 24 April 2019
Temperature: 8.0°C (46°F)
Dewpoint: 7.0°C (45°F) [RH = 93%]
Pressure (altimeter): 29.76 inches Hg (1008.0 mb)
Winds: from the SSE (150 degrees) at 6 MPH (5 knots; 2.6 m/s)
Visibility: 6 or more miles (10+ km)
Ceiling: ceiling and visibility are OK
Clouds: unknown
Weather: no significant weather observed at this time

METAR text: LFSB 242200Z 13006KT CAVOK 09/07 Q1008 NOSIG
Conditions at: LFSB (BALE/MULHOUSE , FR) observed 2200 UTC 24 April 2019
Temperature: 9.0°C (48°F)
Dewpoint: 7.0°C (45°F) [RH = 87%]
Pressure (altimeter): 29.76 inches Hg (1008.0 mb)
Winds: from the SE (130 degrees) at 7 MPH (6 knots; 3.1 m/s)
Visibility: 6 or more miles (10+ km)
Ceiling: ceiling and visibility are OK
Clouds: unknown
Weather: no significant weather observed at this time

METAR text: LFSB 242130Z 13007KT CAVOK 09/07 Q1008 NOSIG
Conditions at: LFSB (BALE/MULHOUSE , FR) observed 2130 UTC 24 April 2019
Temperature: 9.0°C (48°F)
Dewpoint: 7.0°C (45°F) [RH = 87%]
Pressure (altimeter): 29.76 inches Hg (1008.0 mb)
Winds: from the SE (130 degrees) at 8 MPH (7 knots; 3.6 m/s)
Visibility: 6 or more miles (10+ km)
Ceiling: ceiling and visibility are OK
Clouds: unknown
Weather: no significant weather observed at this time

METAR text: LFSB 242100Z 15008KT CAVOK 09/07 Q1008 NOSIG
Conditions at: LFSB (BALE/MULHOUSE , FR) observed 2100 UTC 24 April 2019
Temperature: 9.0°C (48°F)
Dewpoint: 7.0°C (45°F) [RH = 87%]
Pressure (altimeter): 29.76 inches Hg (1008.0 mb)
Winds: from the SSE (150 degrees) at 9 MPH (8 knots; 4.1 m/s)
Visibility: 6 or more miles (10+ km)
Ceiling: ceiling and visibility are OK
Clouds: unknown
Weather: no significant weather observed at this time

METAR text: LFSB 242030Z 13008KT CAVOK 09/07 Q1008 NOSIG
Conditions at: LFSB (BALE/MULHOUSE , FR) observed 2030 UTC 24 April 2019
Temperature: 9.0°C (48°F)
Dewpoint: 7.0°C (45°F) [RH = 87%]
Pressure (altimeter): 29.76 inches Hg (1008.0 mb)
Winds: from the SE (130 degrees) at 9 MPH (8 knots; 4.1 m/s)
Visibility: 6 or more miles (10+ km)
Ceiling: ceiling and visibility are OK
Clouds: unknown
Weather: no significant weather observed at this time

METAR text: LFSB 242000Z 12007KT CAVOK 09/07 Q1008 NOSIG
Conditions at: LFSB (BALE/MULHOUSE , FR) observed 2000 UTC 24 April 2019
Temperature: 9.0°C (48°F)
Dewpoint: 7.0°C (45°F) [RH = 87%]
Pressure (altimeter): 29.76 inches Hg (1008.0 mb)
Winds: from the ESE (120 degrees) at 8 MPH (7 knots; 3.6 m/s)
Visibility: 6 or more miles (10+ km)
Ceiling: ceiling and visibility are OK
Clouds: unknown
Weather: no significant weather observed at this time

METAR text: LFSB 241930Z 14010KT CAVOK 09/07 Q1008 NOSIG
Conditions at: LFSB (BALE/MULHOUSE , FR) observed 1930 UTC 24 April 2019
Temperature: 9.0°C (48°F)
Dewpoint: 7.0°C (45°F) [RH = 87%]
Pressure (altimeter): 29.76 inches Hg (1008.0 mb)
Winds: from the SE (140 degrees) at 12 MPH (10 knots; 5.1 m/s)
Visibility: 6 or more miles (10+ km)
Ceiling: ceiling and visibility are OK
Clouds: unknown
Weather: no significant weather observed at this time

METAR text: LFSB 241900Z 13007KT CAVOK 09/07 Q1007 NOSIG
Conditions at: LFSB (BALE/MULHOUSE , FR) observed 1900 UTC 24 April 2019
Temperature: 9.0°C (48°F)
Dewpoint: 7.0°C (45°F) [RH = 87%]
Pressure (altimeter): 29.73 inches Hg (1007.0 mb)
Winds: from the SE (130 degrees) at 8 MPH (7 knots; 3.6 m/s)
Visibility: 6 or more miles (10+ km)
Ceiling: ceiling and visibility are OK
Clouds: unknown
Weather: no significant weather observed at this time

METAR text: LFSB 241730Z VRB04KT 9999 -RA FEW026 FEW030TCU BKN040 BKN053 10/06 Q1008 NOSIG
Conditions at: LFSB (BALE/MULHOUSE , FR) observed 1730 UTC 24 April 2019
Temperature: 10.0°C (50°F)
Dewpoint: 6.0°C (43°F) [RH = 76%]
Pressure (altimeter): 29.76 inches Hg (1008.0 mb)
Winds: variable direction winds at 5 MPH (4 knots; 2.1 m/s)
Visibility: 6 or more miles (10+ km)
Ceiling: 4000 feet AGL
Clouds: few clouds at 2600 feet AGL
few clouds at 3000 feet AGL
broken clouds at 4000 feet AGL
broken clouds at 5300 feet AGL
Weather: -RA  (light rain)

METAR text: LFSB 241700Z 21004KT 170V320 6000 RA FEW020 FEW030TCU SCT040 BKN060 10/07 Q1009 BECMG NSW
Conditions at: LFSB (BALE/MULHOUSE , FR) observed 1700 UTC 24 April 2019
Temperature: 10.0°C (50°F)
Dewpoint: 7.0°C (45°F) [RH = 82%]
Pressure (altimeter): 29.79 inches Hg (1009.0 mb)
Winds: from the SSW (210 degrees) at 5 MPH (4 knots; 2.1 m/s)
Visibility: 4 miles ( 6 km)
Ceiling: 6000 feet AGL
Clouds: few clouds at 2000 feet AGL
few clouds at 3000 feet AGL
scattered clouds at 4000 feet AGL
broken clouds at 6000 feet AGL
Weather: RA  (moderate rain)

METAR text: LFSB 241630Z 28008KT 230V340 9999 -RA FEW020 FEW040TCU BKN060 BKN100 10/06 Q1008 RERA TEMPO RA
Conditions at: LFSB (BALE/MULHOUSE , FR) observed 1630 UTC 24 April 2019
Temperature: 10.0°C (50°F)
Dewpoint: 6.0°C (43°F) [RH = 76%]
Pressure (altimeter): 29.76 inches Hg (1008.0 mb)
Winds: from the W (280 degrees) at 9 MPH (8 knots; 4.1 m/s)
Visibility: 6 or more miles (10+ km)
Ceiling: 6000 feet AGL
Clouds: few clouds at 2000 feet AGL
few clouds at 4000 feet AGL
broken clouds at 6000 feet AGL
broken clouds at 10000 feet AGL
Weather: -RA  (light rain)

Forecast for: LFSB (BALE/MULHOUSE , FR)
Text: TAF LFSB 252300Z 2600/2624 26010G20KT CAVOK
Forecast period: 0000 to 0100 UTC 26 April 2019
Forecast type: FROM: standard forecast or significant change
Winds: from the W (260 degrees) at 12 MPH (10 knots; 5.1 m/s)
gusting to 23 MPH (20 knots; 10.3 m/s)
Visibility: 6 or more miles 10+ km)
Ceiling: unknown
Clouds: missing
Weather: NSW  (no significant weather)
Text: TEMPO 2600/2603 -RA
Forecast period: 0000 to 0300 UTC 26 April 2019
Forecast type: TEMPORARY: The following changes expected for less than half the time period
Visibility: missing
Ceiling: unknown
Clouds: missing
Weather: -RA  (light rain)
Text: PROB40
Forecast period: 0000 to 0300 UTC 26 April 2019
Forecast type: TEMPORARY: The following changes expected for less than half the time period
Visibility: 2.49 miles (4.01 km)
Ceiling: 4000 feet AGL
Clouds: broken clouds at 4000 feet AGL
scattered clouds at 5000 feet AGL
Weather: RA  (moderate rain)
Text: TEMPO 2600/2603 4000 RA BKN040 SCT050TCU
Forecast period: 0100 UTC 26 April 2019 to 0000 UTC 27 April 2019
Forecast type: BECOMING: Conditions expected to become as follows by 0400 UTC 26 April 2019
Winds: from the SSE (160 degrees) at 6 MPH (5 knots; 2.6 m/s)
Visibility: 6 or more miles 10+ km)
Ceiling: unknown
Clouds: missing
Weather: NSW  (no significant weather)
Text: BECMG 2601/2604 16005KT
Forecast period: 1200 to 2000 UTC 26 April 2019
Forecast type: TEMPORARY: The following changes expected for less than half the time period
Visibility: missing
Ceiling: at least 12,000 feet AGL
Clouds: few clouds at 3000 feet AGL
Weather: SHRA  (rain showers)